sensor_id;sensor_type;location;lat;lon;timestamp;P1;durP1;ratioP1;P2;durP2;ratioP2
21999;SDS011;11164;48.818;2.322;2023-12-22T00:00:43;16.20;;;2.55;;
21999;SDS011;11164;48.818;2.322;2023-12-22T00:03:08;20.23;;;2.60;;
21999;SDS011;11164;48.818;2.322;2023-12-22T00:05:33;17.45;;;2.83;;
21999;SDS011;11164;48.818;2.322;2023-12-22T00:07:59;14.40;;;3.03;;
21999;SDS011;11164;48.818;2.322;2023-12-22T00:10:24;14.88;;;2.60;;
21999;SDS011;11164;48.818;2.322;2023-12-22T00:12:49;13.77;;;2.65;;
21999;SDS011;11164;48.818;2.322;2023-12-22T00:15:15;17.70;;;2.90;;
21999;SDS011;11164;48.818;2.322;2023-12-22T00:17:40;13.77;;;2.17;;
21999;SDS011;11164;48.818;2.322;2023-12-22T00:20:05;12.75;;;2.40;;
21999;SDS011;11164;48.818;2.322;2023-12-22T00:22:31;13.25;;;2.38;;
21999;SDS011;11164;48.818;2.322;2023-12-22T00:24:56;12.00;;;2.30;;
21999;SDS011;11164;48.818;2.322;2023-12-22T00:27:22;8.40;;;1.75;;
21999;SDS011;11164;48.818;2.322;2023-12-22T00:29:47;12.93;;;2.47;;
21999;SDS011;11164;48.818;2.322;2023-12-22T00:32:12;14.60;;;3.05;;
21999;SDS011;11164;48.818;2.322;2023-12-22T00:34:38;9.15;;;2.25;;
21999;SDS011;11164;48.818;2.322;2023-12-22T00:37:03;11.70;;;1.92;;
21999;SDS011;11164;48.818;2.322;2023-12-22T00:39:29;14.02;;;2.38;;
21999;SDS011;11164;48.818;2.322;2023-12-22T00:41:55;13.85;;;2.40;;
21999;SDS011;11164;48.818;2.322;2023-12-22T00:44:20;12.57;;;2.70;;
21999;SDS011;11164;48.818;2.322;2023-12-22T00:46:45;13.00;;;2.55;;
21999;SDS011;11164;48.818;2.322;2023-12-22T00:49:11;15.77;;;3.33;;
21999;SDS011;11164;48.818;2.322;2023-12-22T00:51:36;12.10;;;2.90;;
21999;SDS011;11164;48.818;2.322;2023-12-22T00:54:01;16.05;;;3.17;;
21999;SDS011;11164;48.818;2.322;2023-12-22T00:56:27;12.25;;;3.03;;
21999;SDS011;11164;48.818;2.322;2023-12-22T00:58:52;13.32;;;2.63;;
21999;SDS011;11164;48.818;2.322;2023-12-22T01:01:18;14.25;;;2.92;;
21999;SDS011;11164;48.818;2.322;2023-12-22T01:03:43;16.33;;;2.60;;
21999;SDS011;11164;48.818;2.322;2023-12-22T01:06:09;14.10;;;3.25;;
21999;SDS011;11164;48.818;2.322;2023-12-22T01:08:36;12.95;;;2.85;;
21999;SDS011;11164;48.818;2.322;2023-12-22T01:11:02;12.77;;;2.80;;
21999;SDS011;11164;48.818;2.322;2023-12-22T01:13:27;14.15;;;2.63;;
21999;SDS011;11164;48.818;2.322;2023-12-22T01:15:53;10.75;;;2.45;;
21999;SDS011;11164;48.818;2.322;2023-12-22T01:18:18;13.10;;;3.08;;
21999;SDS011;11164;48.818;2.322;2023-12-22T01:20:43;13.57;;;2.30;;
21999;SDS011;11164;48.818;2.322;2023-12-22T01:23:09;14.32;;;2.33;;
21999;SDS011;11164;48.818;2.322;2023-12-22T01:25:34;13.15;;;2.88;;
21999;SDS011;11164;48.818;2.322;2023-12-22T01:27:59;14.93;;;2.70;;
21999;SDS011;11164;48.818;2.322;2023-12-22T01:30:24;10.70;;;2.22;;
21999;SDS011;11164;48.818;2.322;2023-12-22T01:32:50;6.55;;;2.05;;
21999;SDS011;11164;48.818;2.322;2023-12-22T01:35:15;16.42;;;2.45;;
21999;SDS011;11164;48.818;2.322;2023-12-22T01:37:40;11.80;;;1.80;;
21999;SDS011;11164;48.818;2.322;2023-12-22T01:40:06;13.27;;;2.50;;
21999;SDS011;11164;48.818;2.322;2023-12-22T01:42:32;12.23;;;1.83;;
21999;SDS011;11164;48.818;2.322;2023-12-22T01:44:57;11.88;;;1.80;;
21999;SDS011;11164;48.818;2.322;2023-12-22T01:47:22;9.93;;;1.88;;
21999;SDS011;11164;48.818;2.322;2023-12-22T01:49:48;13.32;;;2.40;;
21999;SDS011;11164;48.818;2.322;2023-12-22T01:52:14;8.70;;;1.95;;
21999;SDS011;11164;48.818;2.322;2023-12-22T01:54:40;10.27;;;1.70;;
21999;SDS011;11164;48.818;2.322;2023-12-22T01:57:06;9.85;;;2.17;;
21999;SDS011;11164;48.818;2.322;2023-12-22T01:59:32;10.18;;;1.80;;
21999;SDS011;11164;48.818;2.322;2023-12-22T02:02:00;8.88;;;1.85;;
21999;SDS011;11164;48.818;2.322;2023-12-22T02:04:28;13.32;;;1.95;;
21999;SDS011;11164;48.818;2.322;2023-12-22T02:06:56;10.05;;;1.95;;
21999;SDS011;11164;48.818;2.322;2023-12-22T02:09:23;11.23;;;2.03;;
21999;SDS011;11164;48.818;2.322;2023-12-22T02:11:49;6.85;;;1.83;;
21999;SDS011;11164;48.818;2.322;2023-12-22T02:14:14;11.30;;;1.92;;
21999;SDS011;11164;48.818;2.322;2023-12-22T02:16:52;11.75;;;1.95;;
21999;SDS011;11164;48.818;2.322;2023-12-22T02:22:21;10.18;;;1.90;;
21999;SDS011;11164;48.818;2.322;2023-12-22T02:24:46;11.32;;;2.00;;
21999;SDS011;11164;48.818;2.322;2023-12-22T02:29:54;10.75;;;2.10;;
21999;SDS011;11164;48.818;2.322;2023-12-22T02:32:31;8.90;;;2.00;;
21999;SDS011;11164;48.818;2.322;2023-12-22T02:35:00;9.02;;;2.08;;
21999;SDS011;11164;48.818;2.322;2023-12-22T02:37:30;6.97;;;1.35;;
21999;SDS011;11164;48.818;2.322;2023-12-22T02:39:57;9.23;;;1.88;;
21999;SDS011;11164;48.818;2.322;2023-12-22T02:42:23;7.90;;;1.73;;
21999;SDS011;11164;48.818;2.322;2023-12-22T02:44:55;7.35;;;1.75;;
21999;SDS011;11164;48.818;2.322;2023-12-22T02:47:21;10.98;;;2.08;;
21999;SDS011;11164;48.818;2.322;2023-12-22T02:49:47;9.27;;;1.90;;
21999;SDS011;11164;48.818;2.322;2023-12-22T02:52:12;10.82;;;1.83;;
21999;SDS011;11164;48.818;2.322;2023-12-22T02:54:37;10.43;;;1.90;;
21999;SDS011;11164;48.818;2.322;2023-12-22T02:57:05;14.70;;;3.55;;
21999;SDS011;11164;48.818;2.322;2023-12-22T02:59:31;7.97;;;2.10;;
21999;SDS011;11164;48.818;2.322;2023-12-22T03:01:57;7.47;;;1.65;;
21999;SDS011;11164;48.818;2.322;2023-12-22T03:04:22;9.40;;;1.50;;
21999;SDS011;11164;48.818;2.322;2023-12-22T03:06:47;8.77;;;1.73;;
21999;SDS011;11164;48.818;2.322;2023-12-22T03:09:13;11.82;;;1.80;;
21999;SDS011;11164;48.818;2.322;2023-12-22T03:11:38;13.23;;;2.42;;
21999;SDS011;11164;48.818;2.322;2023-12-22T03:14:03;11.30;;;1.83;;
21999;SDS011;11164;48.818;2.322;2023-12-22T03:16:29;9.38;;;1.92;;
21999;SDS011;11164;48.818;2.322;2023-12-22T03:18:54;10.75;;;2.30;;
21999;SDS011;11164;48.818;2.322;2023-12-22T03:21:19;12.80;;;2.22;;
21999;SDS011;11164;48.818;2.322;2023-12-22T03:23:45;8.70;;;2.08;;
21999;SDS011;11164;48.818;2.322;2023-12-22T03:26:10;8.68;;;1.90;;
21999;SDS011;11164;48.818;2.322;2023-12-22T03:28:36;9.63;;;1.92;;
21999;SDS011;11164;48.818;2.322;2023-12-22T03:31:02;7.57;;;1.77;;
21999;SDS011;11164;48.818;2.322;2023-12-22T03:33:27;10.88;;;2.17;;
21999;SDS011;11164;48.818;2.322;2023-12-22T03:35:53;11.25;;;1.83;;
21999;SDS011;11164;48.818;2.322;2023-12-22T03:38:18;9.23;;;1.80;;
21999;SDS011;11164;48.818;2.322;2023-12-22T03:40:43;8.75;;;1.90;;
21999;SDS011;11164;48.818;2.322;2023-12-22T03:43:09;12.00;;;1.90;;
21999;SDS011;11164;48.818;2.322;2023-12-22T03:45:34;15.13;;;2.33;;
21999;SDS011;11164;48.818;2.322;2023-12-22T03:47:59;11.05;;;2.08;;
21999;SDS011;11164;48.818;2.322;2023-12-22T03:50:24;10.73;;;1.77;;
21999;SDS011;11164;48.818;2.322;2023-12-22T03:52:50;11.05;;;1.98;;
21999;SDS011;11164;48.818;2.322;2023-12-22T03:55:15;12.70;;;2.28;;
21999;SDS011;11164;48.818;2.322;2023-12-22T03:57:40;9.07;;;1.67;;
21999;SDS011;11164;48.818;2.322;2023-12-22T04:00:06;8.20;;;1.45;;
21999;SDS011;11164;48.818;2.322;2023-12-22T04:02:32;11.00;;;1.92;;
21999;SDS011;11164;48.818;2.322;2023-12-22T04:04:57;8.57;;;2.00;;
21999;SDS011;11164;48.818;2.322;2023-12-22T04:07:22;11.52;;;2.00;;
21999;SDS011;11164;48.818;2.322;2023-12-22T04:09:48;9.95;;;1.88;;
21999;SDS011;11164;48.818;2.322;2023-12-22T04:12:13;7.78;;;1.45;;
21999;SDS011;11164;48.818;2.322;2023-12-22T04:14:38;9.98;;;1.73;;
21999;SDS011;11164;48.818;2.322;2023-12-22T04:17:04;7.28;;;1.80;;
21999;SDS011;11164;48.818;2.322;2023-12-22T04:19:29;11.65;;;1.60;;
21999;SDS011;11164;48.818;2.322;2023-12-22T04:21:54;11.65;;;1.58;;
21999;SDS011;11164;48.818;2.322;2023-12-22T04:24:20;9.85;;;1.52;;
21999;SDS011;11164;48.818;2.322;2023-12-22T04:26:45;10.85;;;1.80;;
21999;SDS011;11164;48.818;2.322;2023-12-22T04:29:10;6.35;;;1.50;;
21999;SDS011;11164;48.818;2.322;2023-12-22T04:31:36;11.57;;;1.73;;
21999;SDS011;11164;48.818;2.322;2023-12-22T04:34:01;6.75;;;1.35;;
21999;SDS011;11164;48.818;2.322;2023-12-22T04:36:26;5.32;;;1.27;;
21999;SDS011;11164;48.818;2.322;2023-12-22T04:38:52;11.10;;;1.30;;
21999;SDS011;11164;48.818;2.322;2023-12-22T04:41:17;6.53;;;1.92;;
21999;SDS011;11164;48.818;2.322;2023-12-22T04:43:42;6.75;;;1.35;;
21999;SDS011;11164;48.818;2.322;2023-12-22T04:46:08;9.25;;;1.50;;
21999;SDS011;11164;48.818;2.322;2023-12-22T04:48:33;6.65;;;1.42;;
21999;SDS011;11164;48.818;2.322;2023-12-22T04:50:58;10.35;;;1.58;;
21999;SDS011;11164;48.818;2.322;2023-12-22T04:53:24;8.68;;;1.73;;
21999;SDS011;11164;48.818;2.322;2023-12-22T04:55:49;3.90;;;0.98;;
21999;SDS011;11164;48.818;2.322;2023-12-22T04:58:14;9.73;;;1.80;;
21999;SDS011;11164;48.818;2.322;2023-12-22T05:00:40;6.65;;;1.50;;
21999;SDS011;11164;48.818;2.322;2023-12-22T05:03:05;9.05;;;1.60;;
21999;SDS011;11164;48.818;2.322;2023-12-22T05:05:30;8.05;;;1.17;;
21999;SDS011;11164;48.818;2.322;2023-12-22T05:07:55;10.75;;;1.42;;
21999;SDS011;11164;48.818;2.322;2023-12-22T05:10:22;6.22;;;1.50;;
21999;SDS011;11164;48.818;2.322;2023-12-22T05:12:48;5.45;;;1.00;;
21999;SDS011;11164;48.818;2.322;2023-12-22T05:15:14;10.05;;;1.80;;
21999;SDS011;11164;48.818;2.322;2023-12-22T05:17:39;7.47;;;1.25;;
21999;SDS011;11164;48.818;2.322;2023-12-22T05:20:05;8.52;;;1.52;;
21999;SDS011;11164;48.818;2.322;2023-12-22T05:22:31;11.27;;;1.50;;
21999;SDS011;11164;48.818;2.322;2023-12-22T05:24:57;8.90;;;1.40;;
21999;SDS011;11164;48.818;2.322;2023-12-22T05:27:23;9.30;;;1.67;;
21999;SDS011;11164;48.818;2.322;2023-12-22T05:29:49;10.60;;;1.60;;
21999;SDS011;11164;48.818;2.322;2023-12-22T05:32:14;5.88;;;1.00;;
21999;SDS011;11164;48.818;2.322;2023-12-22T05:34:40;4.32;;;0.80;;
21999;SDS011;11164;48.818;2.322;2023-12-22T05:37:05;7.00;;;1.10;;
21999;SDS011;11164;48.818;2.322;2023-12-22T05:39:30;7.43;;;1.38;;
21999;SDS011;11164;48.818;2.322;2023-12-22T05:41:57;5.78;;;0.80;;
21999;SDS011;11164;48.818;2.322;2023-12-22T05:44:22;3.67;;;0.80;;
21999;SDS011;11164;48.818;2.322;2023-12-22T05:46:49;3.15;;;0.70;;
21999;SDS011;11164;48.818;2.322;2023-12-22T05:49:15;5.18;;;0.73;;
21999;SDS011;11164;48.818;2.322;2023-12-22T05:51:40;5.93;;;1.00;;
21999;SDS011;11164;48.818;2.322;2023-12-22T05:54:09;5.25;;;0.90;;
21999;SDS011;11164;48.818;2.322;2023-12-22T05:56:36;5.60;;;0.93;;
21999;SDS011;11164;48.818;2.322;2023-12-22T05:59:01;5.25;;;1.30;;
21999;SDS011;11164;48.818;2.322;2023-12-22T06:01:28;4.57;;;0.95;;
21999;SDS011;11164;48.818;2.322;2023-12-22T06:03:53;4.90;;;0.80;;
21999;SDS011;11164;48.818;2.322;2023-12-22T06:06:19;4.40;;;1.10;;
21999;SDS011;11164;48.818;2.322;2023-12-22T06:08:45;4.40;;;0.95;;
21999;SDS011;11164;48.818;2.322;2023-12-22T06:11:10;4.40;;;1.10;;
21999;SDS011;11164;48.818;2.322;2023-12-22T06:13:35;6.80;;;0.85;;
21999;SDS011;11164;48.818;2.322;2023-12-22T06:16:01;4.70;;;0.88;;
21999;SDS011;11164;48.818;2.322;2023-12-22T06:18:26;4.63;;;1.13;;
21999;SDS011;11164;48.818;2.322;2023-12-22T06:20:52;5.40;;;1.20;;
21999;SDS011;11164;48.818;2.322;2023-12-22T06:23:17;4.57;;;1.00;;
21999;SDS011;11164;48.818;2.322;2023-12-22T06:25:43;3.40;;;0.70;;
21999;SDS011;11164;48.818;2.322;2023-12-22T06:28:09;5.22;;;0.80;;
21999;SDS011;11164;48.818;2.322;2023-12-22T06:30:35;5.75;;;0.95;;
21999;SDS011;11164;48.818;2.322;2023-12-22T06:33:00;5.32;;;1.00;;
21999;SDS011;11164;48.818;2.322;2023-12-22T06:35:26;5.05;;;1.10;;
21999;SDS011;11164;48.818;2.322;2023-12-22T06:37:51;6.38;;;1.08;;
21999;SDS011;11164;48.818;2.322;2023-12-22T06:40:17;5.03;;;1.20;;
21999;SDS011;11164;48.818;2.322;2023-12-22T06:42:44;6.57;;;1.13;;
21999;SDS011;11164;48.818;2.322;2023-12-22T06:45:10;7.43;;;1.73;;
21999;SDS011;11164;48.818;2.322;2023-12-22T06:47:36;6.90;;;1.33;;
21999;SDS011;11164;48.818;2.322;2023-12-22T06:50:01;6.03;;;1.35;;
21999;SDS011;11164;48.818;2.322;2023-12-22T06:52:27;8.77;;;1.50;;
21999;SDS011;11164;48.818;2.322;2023-12-22T06:54:53;6.40;;;1.10;;
21999;SDS011;11164;48.818;2.322;2023-12-22T06:57:18;6.97;;;1.40;;
21999;SDS011;11164;48.818;2.322;2023-12-22T06:59:44;5.90;;;1.30;;
21999;SDS011;11164;48.818;2.322;2023-12-22T07:02:09;4.97;;;1.05;;
21999;SDS011;11164;48.818;2.322;2023-12-22T07:07:32;7.38;;;1.27;;
21999;SDS011;11164;48.818;2.322;2023-12-22T07:09:57;7.35;;;1.08;;
21999;SDS011;11164;48.818;2.322;2023-12-22T07:12:23;6.35;;;0.82;;
21999;SDS011;11164;48.818;2.322;2023-12-22T07:14:48;6.60;;;1.58;;
21999;SDS011;11164;48.818;2.322;2023-12-22T07:17:13;6.85;;;1.60;;
21999;SDS011;11164;48.818;2.322;2023-12-22T07:19:39;5.07;;;1.10;;
21999;SDS011;11164;48.818;2.322;2023-12-22T07:22:04;5.72;;;1.00;;
21999;SDS011;11164;48.818;2.322;2023-12-22T07:24:30;5.40;;;1.02;;
21999;SDS011;11164;48.818;2.322;2023-12-22T07:26:56;4.40;;;0.95;;
21999;SDS011;11164;48.818;2.322;2023-12-22T07:29:21;8.52;;;1.10;;
21999;SDS011;11164;48.818;2.322;2023-12-22T07:31:46;5.30;;;1.00;;
21999;SDS011;11164;48.818;2.322;2023-12-22T07:34:12;7.47;;;1.20;;
21999;SDS011;11164;48.818;2.322;2023-12-22T07:36:37;6.90;;;1.15;;
21999;SDS011;11164;48.818;2.322;2023-12-22T07:39:02;4.35;;;0.73;;
21999;SDS011;11164;48.818;2.322;2023-12-22T07:41:28;7.57;;;1.00;;
21999;SDS011;11164;48.818;2.322;2023-12-22T07:43:53;10.27;;;1.10;;
21999;SDS011;11164;48.818;2.322;2023-12-22T07:46:19;6.45;;;1.08;;
21999;SDS011;11164;48.818;2.322;2023-12-22T07:48:44;3.15;;;0.95;;
21999;SDS011;11164;48.818;2.322;2023-12-22T07:51:10;6.00;;;1.17;;
21999;SDS011;11164;48.818;2.322;2023-12-22T07:53:36;6.03;;;1.30;;
21999;SDS011;11164;48.818;2.322;2023-12-22T07:56:02;4.78;;;0.90;;
21999;SDS011;11164;48.818;2.322;2023-12-22T07:58:30;3.45;;;0.90;;
21999;SDS011;11164;48.818;2.322;2023-12-22T08:00:56;4.75;;;0.98;;
21999;SDS011;11164;48.818;2.322;2023-12-22T08:03:21;3.33;;;0.88;;
21999;SDS011;11164;48.818;2.322;2023-12-22T08:05:47;3.92;;;0.60;;
21999;SDS011;11164;48.818;2.322;2023-12-22T08:08:12;3.45;;;0.60;;
21999;SDS011;11164;48.818;2.322;2023-12-22T08:10:37;2.85;;;0.75;;
21999;SDS011;11164;48.818;2.322;2023-12-22T08:13:03;3.97;;;0.90;;
21999;SDS011;11164;48.818;2.322;2023-12-22T08:15:28;2.03;;;0.60;;
21999;SDS011;11164;48.818;2.322;2023-12-22T08:17:54;2.15;;;0.60;;
21999;SDS011;11164;48.818;2.322;2023-12-22T08:20:21;2.92;;;0.60;;
21999;SDS011;11164;48.818;2.322;2023-12-22T08:22:46;5.57;;;1.00;;
21999;SDS011;11164;48.818;2.322;2023-12-22T08:25:16;2.35;;;0.57;;
21999;SDS011;11164;48.818;2.322;2023-12-22T08:27:44;4.13;;;0.88;;
21999;SDS011;11164;48.818;2.322;2023-12-22T08:30:10;2.85;;;0.90;;
21999;SDS011;11164;48.818;2.322;2023-12-22T08:32:35;4.28;;;0.90;;
21999;SDS011;11164;48.818;2.322;2023-12-22T08:35:03;3.13;;;0.88;;
21999;SDS011;11164;48.818;2.322;2023-12-22T08:37:29;3.58;;;1.00;;
21999;SDS011;11164;48.818;2.322;2023-12-22T08:39:55;5.13;;;1.33;;
21999;SDS011;11164;48.818;2.322;2023-12-22T08:42:21;4.82;;;0.80;;
21999;SDS011;11164;48.818;2.322;2023-12-22T08:44:47;4.82;;;0.90;;
21999;SDS011;11164;48.818;2.322;2023-12-22T08:47:13;6.85;;;1.42;;
21999;SDS011;11164;48.818;2.322;2023-12-22T08:49:39;3.75;;;0.77;;
21999;SDS011;11164;48.818;2.322;2023-12-22T08:52:04;4.63;;;0.90;;
21999;SDS011;11164;48.818;2.322;2023-12-22T08:54:30;5.07;;;1.00;;
21999;SDS011;11164;48.818;2.322;2023-12-22T08:56:55;4.13;;;0.80;;
21999;SDS011;11164;48.818;2.322;2023-12-22T08:59:21;5.22;;;0.93;;
21999;SDS011;11164;48.818;2.322;2023-12-22T09:01:47;3.30;;;0.70;;
21999;SDS011;11164;48.818;2.322;2023-12-22T09:04:12;5.90;;;0.95;;
21999;SDS011;11164;48.818;2.322;2023-12-22T09:06:38;2.83;;;1.00;;
21999;SDS011;11164;48.818;2.322;2023-12-22T09:09:03;3.40;;;0.88;;
21999;SDS011;11164;48.818;2.322;2023-12-22T09:11:29;4.22;;;0.80;;
21999;SDS011;11164;48.818;2.322;2023-12-22T09:13:55;3.88;;;0.80;;
21999;SDS011;11164;48.818;2.322;2023-12-22T09:16:24;6.22;;;1.00;;
21999;SDS011;11164;48.818;2.322;2023-12-22T09:18:50;5.55;;;1.10;;
21999;SDS011;11164;48.818;2.322;2023-12-22T09:21:16;3.70;;;0.93;;
21999;SDS011;11164;48.818;2.322;2023-12-22T09:23:43;6.85;;;1.00;;
21999;SDS011;11164;48.818;2.322;2023-12-22T09:26:10;6.15;;;0.88;;
21999;SDS011;11164;48.818;2.322;2023-12-22T09:28:36;4.55;;;1.00;;
21999;SDS011;11164;48.818;2.322;2023-12-22T09:31:02;7.55;;;1.27;;
21999;SDS011;11164;48.818;2.322;2023-12-22T09:33:31;4.25;;;1.20;;
21999;SDS011;11164;48.818;2.322;2023-12-22T09:35:56;3.95;;;0.93;;
21999;SDS011;11164;48.818;2.322;2023-12-22T09:38:22;5.97;;;0.98;;
21999;SDS011;11164;48.818;2.322;2023-12-22T09:40:49;5.75;;;1.30;;
21999;SDS011;11164;48.818;2.322;2023-12-22T09:43:14;3.10;;;0.90;;
21999;SDS011;11164;48.818;2.322;2023-12-22T09:45:41;2.90;;;0.60;;
21999;SDS011;11164;48.818;2.322;2023-12-22T09:48:07;2.97;;;1.00;;
21999;SDS011;11164;48.818;2.322;2023-12-22T09:50:33;3.58;;;0.82;;
21999;SDS011;11164;48.818;2.322;2023-12-22T09:53:00;3.45;;;0.85;;
21999;SDS011;11164;48.818;2.322;2023-12-22T09:55:27;4.03;;;0.90;;
21999;SDS011;11164;48.818;2.322;2023-12-22T09:57:53;2.67;;;0.80;;
21999;SDS011;11164;48.818;2.322;2023-12-22T10:00:22;3.95;;;0.77;;
21999;SDS011;11164;48.818;2.322;2023-12-22T10:02:50;3.03;;;0.88;;
21999;SDS011;11164;48.818;2.322;2023-12-22T10:05:15;2.40;;;0.70;;
21999;SDS011;11164;48.818;2.322;2023-12-22T10:07:44;1.65;;;0.50;;
21999;SDS011;11164;48.818;2.322;2023-12-22T10:10:11;1.95;;;0.60;;
21999;SDS011;11164;48.818;2.322;2023-12-22T10:12:38;2.65;;;0.68;;
21999;SDS011;11164;48.818;2.322;2023-12-22T10:15:04;5.97;;;0.70;;
21999;SDS011;11164;48.818;2.322;2023-12-22T10:17:31;2.75;;;0.68;;
21999;SDS011;11164;48.818;2.322;2023-12-22T10:19:57;7.57;;;0.95;;
21999;SDS011;11164;48.818;2.322;2023-12-22T10:22:23;3.15;;;0.95;;
21999;SDS011;11164;48.818;2.322;2023-12-22T10:24:49;3.17;;;0.90;;
21999;SDS011;11164;48.818;2.322;2023-12-22T10:27:18;3.35;;;1.20;;
21999;SDS011;11164;48.818;2.322;2023-12-22T10:29:50;8.98;;;2.03;;
21999;SDS011;11164;48.818;2.322;2023-12-22T10:32:20;5.85;;;1.20;;
21999;SDS011;11164;48.818;2.322;2023-12-22T10:34:46;5.07;;;0.85;;
21999;SDS011;11164;48.818;2.322;2023-12-22T10:37:13;3.42;;;0.90;;
21999;SDS011;11164;48.818;2.322;2023-12-22T10:39:39;5.47;;;1.13;;
21999;SDS011;11164;48.818;2.322;2023-12-22T10:42:05;6.93;;;1.38;;
21999;SDS011;11164;48.818;2.322;2023-12-22T10:44:31;3.78;;;1.20;;
21999;SDS011;11164;48.818;2.322;2023-12-22T10:46:57;4.80;;;1.08;;
21999;SDS011;11164;48.818;2.322;2023-12-22T10:49:24;6.22;;;1.33;;
21999;SDS011;11164;48.818;2.322;2023-12-22T10:51:50;7.63;;;1.70;;
21999;SDS011;11164;48.818;2.322;2023-12-22T10:54:20;6.78;;;1.67;;
21999;SDS011;11164;48.818;2.322;2023-12-22T10:56:45;5.53;;;1.20;;
21999;SDS011;11164;48.818;2.322;2023-12-22T10:59:11;6.63;;;1.30;;
21999;SDS011;11164;48.818;2.322;2023-12-22T11:01:37;7.75;;;1.50;;
21999;SDS011;11164;48.818;2.322;2023-12-22T11:04:05;8.13;;;1.30;;
21999;SDS011;11164;48.818;2.322;2023-12-22T11:06:34;6.60;;;1.55;;
21999;SDS011;11164;48.818;2.322;2023-12-22T11:09:02;7.90;;;1.55;;
21999;SDS011;11164;48.818;2.322;2023-12-22T11:11:36;10.95;;;1.52;;
21999;SDS011;11164;48.818;2.322;2023-12-22T11:14:03;4.32;;;0.93;;
21999;SDS011;11164;48.818;2.322;2023-12-22T11:16:30;5.40;;;1.10;;
21999;SDS011;11164;48.818;2.322;2023-12-22T11:18:56;12.25;;;2.10;;
21999;SDS011;11164;48.818;2.322;2023-12-22T11:21:23;8.10;;;1.80;;
21999;SDS011;11164;48.818;2.322;2023-12-22T11:23:51;8.13;;;1.80;;
21999;SDS011;11164;48.818;2.322;2023-12-22T11:26:18;13.40;;;3.50;;
21999;SDS011;11164;48.818;2.322;2023-12-22T11:28:45;8.18;;;1.80;;
21999;SDS011;11164;48.818;2.322;2023-12-22T11:31:11;5.63;;;1.33;;
21999;SDS011;11164;48.818;2.322;2023-12-22T11:33:37;8.18;;;1.60;;
21999;SDS011;11164;48.818;2.322;2023-12-22T11:36:08;6.75;;;1.58;;
21999;SDS011;11164;48.818;2.322;2023-12-22T11:38:33;12.70;;;2.42;;
21999;SDS011;11164;48.818;2.322;2023-12-22T11:40:59;10.27;;;2.80;;
21999;SDS011;11164;48.818;2.322;2023-12-22T11:43:26;8.73;;;1.98;;
21999;SDS011;11164;48.818;2.322;2023-12-22T11:45:54;13.40;;;2.17;;
21999;SDS011;11164;48.818;2.322;2023-12-22T11:48:19;11.65;;;2.10;;
21999;SDS011;11164;48.818;2.322;2023-12-22T11:50:46;7.82;;;2.05;;
21999;SDS011;11164;48.818;2.322;2023-12-22T11:53:22;12.98;;;1.92;;
21999;SDS011;11164;48.818;2.322;2023-12-22T11:58:34;9.88;;;2.42;;
21999;SDS011;11164;48.818;2.322;2023-12-22T12:01:08;8.52;;;1.83;;
21999;SDS011;11164;48.818;2.322;2023-12-22T12:03:57;11.07;;;2.75;;
21999;SDS011;11164;48.818;2.322;2023-12-22T12:08:52;36.15;;;13.40;;
21999;SDS011;11164;48.818;2.322;2023-12-22T12:11:21;13.77;;;4.40;;
21999;SDS011;11164;48.818;2.322;2023-12-22T12:13:47;15.98;;;4.38;;
21999;SDS011;11164;48.818;2.322;2023-12-22T12:16:14;15.98;;;3.20;;
21999;SDS011;11164;48.818;2.322;2023-12-22T12:18:43;14.38;;;2.72;;
21999;SDS011;11164;48.818;2.322;2023-12-22T12:21:10;9.40;;;2.80;;
21999;SDS011;11164;48.818;2.322;2023-12-22T12:23:36;10.85;;;2.75;;
21999;SDS011;11164;48.818;2.322;2023-12-22T12:26:06;9.98;;;2.10;;
21999;SDS011;11164;48.818;2.322;2023-12-22T12:28:32;8.90;;;1.63;;
21999;SDS011;11164;48.818;2.322;2023-12-22T12:30:59;19.02;;;3.65;;
21999;SDS011;11164;48.818;2.322;2023-12-22T12:33:26;11.23;;;2.60;;
21999;SDS011;11164;48.818;2.322;2023-12-22T12:35:55;8.80;;;2.55;;
21999;SDS011;11164;48.818;2.322;2023-12-22T12:38:23;18.63;;;2.40;;
21999;SDS011;11164;48.818;2.322;2023-12-22T12:41:09;14.18;;;2.95;;
21999;SDS011;11164;48.818;2.322;2023-12-22T12:43:41;12.07;;;2.80;;
21999;SDS011;11164;48.818;2.322;2023-12-22T12:46:08;14.77;;;2.85;;
21999;SDS011;11164;48.818;2.322;2023-12-22T12:48:34;15.18;;;2.85;;
21999;SDS011;11164;48.818;2.322;2023-12-22T12:51:04;14.93;;;2.67;;
21999;SDS011;11164;48.818;2.322;2023-12-22T12:53:33;13.43;;;3.17;;
21999;SDS011;11164;48.818;2.322;2023-12-22T12:56:02;14.13;;;2.45;;
21999;SDS011;11164;48.818;2.322;2023-12-22T12:58:31;11.63;;;2.35;;
21999;SDS011;11164;48.818;2.322;2023-12-22T13:01:04;18.23;;;4.20;;
21999;SDS011;11164;48.818;2.322;2023-12-22T13:03:51;10.05;;;2.67;;
21999;SDS011;11164;48.818;2.322;2023-12-22T13:06:20;13.73;;;3.67;;
21999;SDS011;11164;48.818;2.322;2023-12-22T13:08:50;18.60;;;4.60;;
21999;SDS011;11164;48.818;2.322;2023-12-22T13:11:26;11.55;;;2.47;;
21999;SDS011;11164;48.818;2.322;2023-12-22T13:13:53;11.13;;;2.10;;
21999;SDS011;11164;48.818;2.322;2023-12-22T13:16:27;13.63;;;2.75;;
21999;SDS011;11164;48.818;2.322;2023-12-22T13:18:56;11.65;;;2.67;;
21999;SDS011;11164;48.818;2.322;2023-12-22T13:21:22;13.70;;;2.40;;
21999;SDS011;11164;48.818;2.322;2023-12-22T13:24:07;10.13;;;2.17;;
21999;SDS011;11164;48.818;2.322;2023-12-22T13:26:33;10.65;;;2.33;;
21999;SDS011;11164;48.818;2.322;2023-12-22T13:28:58;9.45;;;1.90;;
21999;SDS011;11164;48.818;2.322;2023-12-22T13:31:25;13.23;;;3.28;;
21999;SDS011;11164;48.818;2.322;2023-12-22T13:33:51;16.70;;;3.15;;
21999;SDS011;11164;48.818;2.322;2023-12-22T13:36:16;10.75;;;2.70;;
21999;SDS011;11164;48.818;2.322;2023-12-22T13:38:46;11.25;;;2.28;;
21999;SDS011;11164;48.818;2.322;2023-12-22T13:41:12;14.82;;;2.83;;
21999;SDS011;11164;48.818;2.322;2023-12-22T13:43:39;10.02;;;2.22;;
21999;SDS011;11164;48.818;2.322;2023-12-22T13:46:05;9.52;;;1.88;;
21999;SDS011;11164;48.818;2.322;2023-12-22T13:48:32;11.98;;;2.17;;
21999;SDS011;11164;48.818;2.322;2023-12-22T13:50:59;15.90;;;2.42;;
21999;SDS011;11164;48.818;2.322;2023-12-22T13:53:26;17.20;;;3.05;;
21999;SDS011;11164;48.818;2.322;2023-12-22T13:55:55;12.60;;;2.35;;
21999;SDS011;11164;48.818;2.322;2023-12-22T13:58:22;11.40;;;2.15;;
21999;SDS011;11164;48.818;2.322;2023-12-22T14:00:48;14.60;;;2.42;;
21999;SDS011;11164;48.818;2.322;2023-12-22T14:03:14;12.88;;;2.30;;
21999;SDS011;11164;48.818;2.322;2023-12-22T14:05:41;11.43;;;2.17;;
21999;SDS011;11164;48.818;2.322;2023-12-22T14:08:07;9.32;;;1.65;;
21999;SDS011;11164;48.818;2.322;2023-12-22T14:10:33;11.65;;;2.47;;
21999;SDS011;11164;48.818;2.322;2023-12-22T14:12:58;11.00;;;2.00;;
21999;SDS011;11164;48.818;2.322;2023-12-22T14:15:23;11.27;;;2.33;;
21999;SDS011;11164;48.818;2.322;2023-12-22T14:17:48;5.13;;;1.30;;
21999;SDS011;11164;48.818;2.322;2023-12-22T14:20:15;13.18;;;2.47;;
21999;SDS011;11164;48.818;2.322;2023-12-22T14:22:40;11.13;;;2.30;;
21999;SDS011;11164;48.818;2.322;2023-12-22T14:25:06;16.13;;;2.45;;
21999;SDS011;11164;48.818;2.322;2023-12-22T14:27:31;8.10;;;1.60;;
21999;SDS011;11164;48.818;2.322;2023-12-22T14:29:57;7.88;;;1.80;;
21999;SDS011;11164;48.818;2.322;2023-12-22T14:32:22;15.57;;;2.22;;
21999;SDS011;11164;48.818;2.322;2023-12-22T14:34:48;4.88;;;1.20;;
21999;SDS011;11164;48.818;2.322;2023-12-22T14:37:14;12.27;;;2.33;;
21999;SDS011;11164;48.818;2.322;2023-12-22T14:39:41;9.40;;;1.40;;
21999;SDS011;11164;48.818;2.322;2023-12-22T14:42:08;12.10;;;2.20;;
21999;SDS011;11164;48.818;2.322;2023-12-22T14:44:34;7.53;;;1.42;;
21999;SDS011;11164;48.818;2.322;2023-12-22T14:46:59;11.07;;;2.33;;
21999;SDS011;11164;48.818;2.322;2023-12-22T14:49:25;9.02;;;1.80;;
21999;SDS011;11164;48.818;2.322;2023-12-22T14:51:50;11.15;;;2.58;;